Time;durP1;ratioP1;P1;durP2;ratioP2;P2;SDS_P1;SDS_P2;PMS_P1;PMS_P2;Temp;Humidity;BMP_temperature;BMP_pressure;BME280_temperature;BME280_humidity;BME280_pressure;Samples;Min_cycle;Max_cycle;Signal;HPM_P1;HPM_P2
2022/12/29 00:01:49;;;;;;;0.43;0.43;;;;;;;5.22;100.00;98462.41;5058423;28;20514;-76
2022/12/29 00:04:15;;;;;;;0.50;0.50;;;;;;;4.93;100.00;98452.84;5075043;28;20093;-76
2022/12/29 00:06:42;;;;;;;0.50;0.50;;;;;;;4.73;100.00;98458.03;5041688;28;20028;-76
2022/12/29 00:09:08;;;;;;;0.50;0.50;;;;;;;4.63;100.00;98450.41;5075069;28;20481;-76
2022/12/29 00:11:34;;;;;;;0.40;0.40;;;;;;;4.75;100.00;98471.97;5058217;28;20032;-76
2022/12/29 00:16:44;;;;;;;0.47;0.47;;;;;;;4.69;100.00;98483.41;5060961;28;20124;-78
2022/12/29 00:35:07;;;;;;;0.40;0.40;;;;;;;4.72;100.00;98483.03;5057878;28;20020;-77
2022/12/29 00:36:24;;;;;;;0.50;0.50;;;;;;;5.45;100.00;98514.56;5074556;28;20029;-78
2022/12/29 00:44:21;;;;;;;0.40;0.40;;;;;;;5.23;100.00;98501.34;5074224;28;20028;-77
2022/12/29 00:46:47;;;;;;;0.50;0.50;;;;;;;5.11;100.00;98512.75;5057594;28;20036;-79
2022/12/29 00:49:31;;;;;;;0.50;0.50;;;;;;;5.02;100.00;98504.91;5057813;28;20501;-77
2022/12/29 00:52:10;;;;;;;0.40;0.40;;;;;;;4.98;100.00;98514.34;5074169;28;20405;-77
2022/12/29 00:54:38;;;;;;;0.40;0.40;;;;;;;4.88;100.00;98510.38;5074377;28;20029;-77
2022/12/29 00:57:05;;;;;;;0.50;0.50;;;;;;;4.95;100.00;98512.06;5074036;28;20025;-77
2022/12/29 00:59:30;;;;;;;0.50;0.50;;;;;;;5.14;100.00;98528.38;5057306;28;20033;-77
2022/12/29 01:01:57;;;;;;;0.50;0.50;;;;;;;5.29;100.00;98519.25;5074148;28;20062;-77
2022/12/29 01:04:25;;;;;;;0.40;0.40;;;;;;;5.44;100.00;98523.59;5036624;28;20033;-77
2022/12/29 01:06:51;;;;;;;0.60;0.60;;;;;;;5.64;100.00;98521.03;5037381;28;20383;-77
2022/12/29 01:12:03;;;;;;;0.40;0.40;;;;;;;5.85;100.00;98530.78;5040193;28;20033;-77
2022/12/29 01:14:28;;;;;;;0.47;0.47;;;;;;;5.90;100.00;98536.28;5037642;28;20064;-76
2022/12/29 01:16:55;;;;;;;0.50;0.50;;;;;;;5.90;100.00;98523.81;5037309;28;20438;-77
2022/12/29 01:19:21;;;;;;;0.40;0.40;;;;;;;6.09;100.00;98540.09;5054641;28;20037;-76
2022/12/29 01:21:47;;;;;;;0.40;0.40;;;;;;;6.06;100.00;98541.31;5057049;28;20035;-77
2022/12/29 01:24:17;;;;;;;0.50;0.50;;;;;;;6.09;100.00;98556.94;5057052;28;20089;-76
2022/12/29 01:26:42;;;;;;;0.40;0.40;;;;;;;6.19;100.00;98561.84;5024865;28;20028;-77
2022/12/29 01:29:08;;;;;;;0.50;0.50;;;;;;;5.97;100.00;98539.84;5056595;28;20573;-78
2022/12/29 01:31:35;;;;;;;0.40;0.40;;;;;;;5.91;100.00;98561.97;5073373;28;20032;-77
2022/12/29 01:34:01;;;;;;;0.40;0.40;;;;;;;5.68;100.00;98557.75;5040320;28;20071;-77
2022/12/29 01:36:27;;;;;;;0.40;0.40;;;;;;;5.49;100.00;98561.97;5036560;28;20064;-77
2022/12/29 01:38:53;;;;;;;0.43;0.43;;;;;;;5.31;100.00;98569.66;5046761;28;20493;-75
2022/12/29 01:41:19;;;;;;;0.50;0.50;;;;;;;5.20;100.00;98555.03;5073046;28;20028;-76
2022/12/29 01:43:51;;;;;;;0.40;0.40;;;;;;;5.28;100.00;98581.53;5056425;28;20040;-75
2022/12/29 01:46:36;;;;;;;0.50;0.50;;;;;;;5.45;100.00;98584.72;5073454;28;20039;-75
2022/12/29 01:49:07;;;;;;;0.50;0.50;;;;;;;5.63;100.00;98592.19;5072934;28;20028;-77
2022/12/29 01:51:40;;;;;;;0.50;0.50;;;;;;;5.69;100.00;98585.25;5074513;28;20086;-76
2022/12/29 01:54:11;;;;;;;0.75;0.60;;;;;;;5.86;100.00;98621.22;5072961;28;20035;-76
2022/12/29 01:56:37;;;;;;;0.40;0.40;;;;;;;5.91;100.00;98615.31;5036675;28;20394;-76
2022/12/29 01:59:11;;;;;;;11.35;1.05;;;;;;;5.86;100.00;98617.75;5053046;28;20025;-76
2022/12/29 02:01:37;;;;;;;0.45;0.45;;;;;;;5.73;100.00;98624.66;5036726;28;20047;-77
2022/12/29 02:04:03;;;;;;;0.40;0.40;;;;;;;5.64;100.00;98620.50;5052047;28;20033;-77
2022/12/29 02:06:36;;;;;;;0.40;0.40;;;;;;;5.64;100.00;98630.34;5036428;28;20467;-76
2022/12/29 02:09:02;;;;;;;0.50;0.50;;;;;;;5.63;100.00;98624.19;5020225;28;20056;-75
2022/12/29 02:11:29;;;;;;;0.40;0.40;;;;;;;5.54;100.00;98625.38;5052433;28;20119;-76
2022/12/29 02:13:56;;;;;;;0.50;0.50;;;;;;;5.31;100.00;98628.28;5054820;28;20501;-75
2022/12/29 02:16:42;;;;;;;0.60;0.60;;;;;;;5.24;100.00;98630.91;5039534;28;20056;-75
2022/12/29 02:19:14;;;;;;;0.50;0.50;;;;;;;5.37;100.00;98638.19;5072772;28;20064;-75
2022/12/29 02:21:46;;;;;;;6.70;1.38;;;;;;;5.50;100.00;98659.59;5053812;28;20051;-76
2022/12/29 02:24:30;;;;;;;5.88;1.30;;;;;;;5.49;100.00;98646.44;5053409;28;20025;-76
2022/12/29 02:27:27;;;;;;;0.70;0.50;;;;;;;5.34;100.00;98667.03;5052535;28;20143;-76
2022/12/29 02:30:30;;;;;;;0.43;0.43;;;;;;;5.13;100.00;98670.56;5062600;28;20037;-76
2022/12/29 02:33:18;;;;;;;;;;;;;;;4.89;100.00;98675.25;5056340;28;20024;-75
2022/12/29 02:36:07;;;;;;;0.50;0.50;;;;;;;4.70;100.00;98657.25;5064323;28;19939;-75
2022/12/29 02:38:56;;;;;;;0.50;0.50;;;;;;;4.68;100.00;98675.25;5073293;28;20033;-76
2022/12/29 02:41:26;;;;;;;0.50;0.50;;;;;;;4.51;100.00;98674.66;5039080;28;20119;-75
2022/12/29 02:44:10;;;;;;;0.50;0.50;;;;;;;4.45;100.00;98694.88;5072365;28;20123;-78
2022/12/29 02:46:39;;;;;;;0.50;0.50;;;;;;;4.35;100.00;98681.03;5072049;28;20432;-77
2022/12/29 02:49:32;;;;;;;0.50;0.50;;;;;;;4.33;100.00;98681.22;5071951;28;20105;-77
2022/12/29 02:52:02;;;;;;;0.40;0.40;;;;;;;4.47;100.00;98698.16;5023722;28;20570;-76
2022/12/29 02:54:43;;;;;;;0.40;0.40;;;;;;;4.61;100.00;98715.94;5055692;28;20035;-79
2022/12/29 02:57:12;;;;;;;0.50;0.50;;;;;;;4.75;100.00;98708.09;5072052;28;20028;-76
2022/12/29 02:59:38;;;;;;;0.50;0.50;;;;;;;4.64;100.00;98704.09;5055654;28;20029;-77
2022/12/29 03:02:25;;;;;;;0.50;0.50;;;;;;;4.50;100.00;98704.94;5055213;28;20040;-76
2022/12/29 03:05:28;;;;;;;0.50;0.50;;;;;;;4.24;100.00;98703.63;5051789;28;20029;-77
2022/12/29 03:08:35;;;;;;;0.50;0.50;;;;;;;4.15;100.00;98704.72;5051647;28;20497;-78
2022/12/29 03:17:09;;;;;;;0.50;0.50;;;;;;;4.25;100.00;98721.22;5055466;28;20475;-77
2022/12/29 03:19:39;;;;;;;0.45;0.45;;;;;;;4.23;100.00;98717.91;5043088;28;20035;-76
2022/12/29 03:24:54;;;;;;;0.40;0.40;;;;;;;4.50;100.00;98721.75;5047730;28;20032;-77
2022/12/29 03:27:24;;;;;;;0.50;0.50;;;;;;;4.52;100.00;98729.53;5059160;28;20032;-75
2022/12/29 03:29:53;;;;;;;0.50;0.50;;;;;;;4.68;100.00;98747.13;5059311;28;20470;-74
2022/12/29 03:32:22;;;;;;;1.13;1.02;;;;;;;4.73;100.00;98750.06;5042568;28;20044;-75
2022/12/29 03:34:49;;;;;;;0.50;0.50;;;;;;;4.68;100.00;98757.78;5058759;28;20029;-75
2022/12/29 03:37:18;;;;;;;0.50;0.50;;;;;;;4.57;100.00;98751.09;5058771;28;20082;-75
2022/12/29 03:39:44;;;;;;;0.40;0.40;;;;;;;4.38;100.00;98742.69;5059160;28;20076;-77
2022/12/29 03:42:14;;;;;;;0.50;0.50;;;;;;;4.18;100.00;98752.22;5042429;28;20538;-78
2022/12/29 03:44:43;;;;;;;0.50;0.50;;;;;;;3.86;100.00;98743.59;5058722;28;20555;-78
2022/12/29 03:47:11;;;;;;;0.40;0.40;;;;;;;3.75;100.00;98742.22;5042265;28;20090;-78
2022/12/29 03:49:36;;;;;;;0.40;0.40;;;;;;;3.72;100.00;98749.72;5042386;28;20474;-78
2022/12/29 03:52:03;;;;;;;0.40;0.40;;;;;;;3.91;100.00;98754.50;5075221;28;20040;-75
2022/12/29 03:54:29;;;;;;;0.40;0.40;;;;;;;4.20;100.00;98744.91;5058645;28;20094;-75
2022/12/29 03:56:55;;;;;;;0.60;0.60;;;;;;;4.47;100.00;98799.28;5075368;28;20066;-78
2022/12/29 03:59:21;;;;;;;1.23;1.13;;;;;;;4.49;100.00;98789.28;5058788;28;20037;-75
2022/12/29 04:01:47;;;;;;;0.50;0.50;;;;;;;4.25;100.00;98757.66;5042116;28;20512;-75
2022/12/29 04:04:13;;;;;;;0.40;0.40;;;;;;;4.05;100.00;98766.19;5058361;28;20032;-75
2022/12/29 04:06:38;;;;;;;0.40;0.40;;;;;;;3.73;100.00;98751.38;5075161;28;20029;-77
2022/12/29 04:09:04;;;;;;;0.40;0.40;;;;;;;3.56;100.00;98748.06;5074890;28;20031;-78
2022/12/29 04:11:29;;;;;;;0.40;0.40;;;;;;;3.61;100.00;98760.81;5041862;28;20068;-76
2022/12/29 04:13:55;;;;;;;0.50;0.50;;;;;;;3.71;100.00;98756.88;5076228;28;20348;-77
2022/12/29 04:16:21;;;;;;;0.60;0.60;;;;;;;3.96;100.00;98769.94;5041890;28;20067;-76
2022/12/29 04:18:46;;;;;;;0.50;0.50;;;;;;;4.05;100.00;98766.19;5058295;28;20058;-76
2022/12/29 04:21:12;;;;;;;0.50;0.50;;;;;;;4.09;100.00;98748.03;5041720;28;20033;-77
2022/12/29 04:23:38;;;;;;;0.43;0.43;;;;;;;4.18;100.00;98769.03;5058314;28;20028;-76
2022/12/29 04:26:06;;;;;;;0.60;0.60;;;;;;;4.16;100.00;98752.44;5074937;28;20153;-76
2022/12/29 04:28:32;;;;;;;0.50;0.50;;;;;;;4.24;100.00;98753.34;5073716;28;20040;-76
2022/12/29 04:30:58;;;;;;;0.50;0.50;;;;;;;4.24;100.00;98756.84;5057892;28;20028;-77
2022/12/29 04:33:24;;;;;;;0.50;0.50;;;;;;;4.24;100.00;98750.69;5057753;28;20119;-75
2022/12/29 04:35:50;;;;;;;0.45;0.45;;;;;;;4.27;100.00;98752.97;5041667;28;20036;-76
2022/12/29 04:38:16;;;;;;;0.50;0.50;;;;;;;4.36;100.00;98758.00;5057817;28;20028;-75
2022/12/29 04:40:42;;;;;;;0.40;0.40;;;;;;;4.26;100.00;98744.19;5024528;28;20040;-76
2022/12/29 04:43:09;;;;;;;0.50;0.50;;;;;;;4.18;100.00;98746.91;5057644;28;20368;-76
2022/12/29 04:45:36;;;;;;;0.50;0.50;;;;;;;4.18;100.00;98762.88;5057933;28;20165;-76
2022/12/29 04:48:01;;;;;;;0.50;0.50;;;;;;;4.13;100.00;98770.59;5025019;28;20033;-76
2022/12/29 04:50:27;;;;;;;0.40;0.40;;;;;;;4.13;100.00;98766.09;5074122;28;20031;-76
2022/12/29 04:52:53;;;;;;;0.50;0.50;;;;;;;4.20;100.00;98758.19;5074109;28;20387;-76
2022/12/29 04:55:18;;;;;;;0.50;0.50;;;;;;;4.35;100.00;98769.66;5057278;28;20086;-76
2022/12/29 04:57:47;;;;;;;0.40;0.40;;;;;;;4.51;100.00;98773.16;5074086;28;20039;-76
2022/12/29 05:00:13;;;;;;;0.40;0.40;;;;;;;4.56;100.00;98779.56;5057976;28;20032;-78
2022/12/29 05:02:40;;;;;;;0.50;0.50;;;;;;;4.55;100.00;98743.31;5040693;28;20090;-76
2022/12/29 05:05:06;;;;;;;1.02;1.02;;;;;;;4.38;100.00;98736.53;5057216;28;20466;-76
2022/12/29 05:07:33;;;;;;;0.45;0.45;;;;;;;4.25;100.00;98766.47;5074170;28;20374;-78
2022/12/29 05:09:59;;;;;;;0.40;0.40;;;;;;;4.04;100.00;98761.03;5073778;28;20493;-76
2022/12/29 05:12:25;;;;;;;0.45;0.45;;;;;;;3.91;100.00;98762.50;5040762;28;20040;-76
2022/12/29 05:14:50;;;;;;;0.50;0.50;;;;;;;3.89;100.00;98763.69;5040925;28;20433;-76
2022/12/29 05:17:16;;;;;;;0.50;0.50;;;;;;;3.93;100.00;98767.63;5057367;28;20032;-77
2022/12/29 05:19:42;;;;;;;0.40;0.40;;;;;;;3.94;100.00;98759.50;5040491;28;20024;-76
2022/12/29 05:22:08;;;;;;;0.50;0.50;;;;;;;3.94;100.00;98754.19;5073601;28;20024;-76
2022/12/29 05:24:33;;;;;;;1.92;0.70;;;;;;;4.10;100.00;98768.28;5057008;28;20037;-76
2022/12/29 05:26:59;;;;;;;0.40;0.40;;;;;;;4.07;100.00;98777.44;5040509;28;20036;-76
2022/12/29 05:29:24;;;;;;;0.50;0.50;;;;;;;4.03;100.00;98780.69;5040574;28;20039;-76
2022/12/29 05:31:50;;;;;;;0.52;0.52;;;;;;;4.01;100.00;98775.53;5073612;28;20036;-76
2022/12/29 05:34:18;;;;;;;0.70;0.70;;;;;;;4.06;100.00;98753.72;5073440;28;20577;-76
2022/12/29 05:36:44;;;;;;;0.50;0.50;;;;;;;4.31;100.00;98756.91;5056704;28;20058;-76
2022/12/29 05:39:10;;;;;;;1.25;0.50;;;;;;;4.38;100.00;98774.59;5040376;28;20461;-76
2022/12/29 05:41:35;;;;;;;0.60;0.60;;;;;;;4.43;100.00;98770.59;5056711;28;20044;-76
2022/12/29 05:44:01;;;;;;;0.70;0.60;;;;;;;4.34;100.00;98784.00;5040194;28;20036;-77
2022/12/29 05:46:27;;;;;;;0.50;0.50;;;;;;;4.12;100.00;98774.25;5023823;28;20098;-76
2022/12/29 05:48:53;;;;;;;0.40;0.40;;;;;;;4.02;100.00;98777.16;5056615;28;20028;-76
2022/12/29 05:51:18;;;;;;;0.50;0.50;;;;;;;3.89;100.00;98763.69;5056628;28;20028;-76
2022/12/29 05:53:44;;;;;;;0.50;0.50;;;;;;;3.88;100.00;98776.16;5052738;28;20725;-76
2022/12/29 05:56:10;;;;;;;0.50;0.50;;;;;;;4.00;100.00;98783.72;5052941;28;20055;-77
2022/12/29 05:58:35;;;;;;;0.50;0.50;;;;;;;4.28;100.00;98789.22;5053335;28;20498;-77
2022/12/29 06:01:01;;;;;;;2.28;0.70;;;;;;;4.29;100.00;98794.34;5052703;28;20437;-76
2022/12/29 06:03:26;;;;;;;0.60;0.60;;;;;;;4.09;100.00;98785.25;5020016;28;20043;-78
2022/12/29 06:05:52;;;;;;;0.80;0.70;;;;;;;3.97;100.00;98790.22;5036515;28;20040;-76
2022/12/29 06:08:18;;;;;;;1.10;0.40;;;;;;;4.03;100.00;98802.78;5036214;28;20033;-76
2022/12/29 06:10:44;;;;;;;0.40;0.40;;;;;;;4.14;100.00;98806.81;5041323;28;20033;-76
2022/12/29 06:13:09;;;;;;;0.50;0.50;;;;;;;4.14;100.00;98796.19;5036497;28;20497;-77
2022/12/29 06:15:35;;;;;;;0.50;0.50;;;;;;;4.01;100.00;98803.97;5036058;28;20033;-76
2022/12/29 06:18:01;;;;;;;0.40;0.40;;;;;;;3.81;100.00;98808.97;5020015;28;20040;-75
2022/12/29 06:20:27;;;;;;;0.50;0.50;;;;;;;3.62;100.00;98808.44;5055999;28;20532;-76
2022/12/29 06:22:53;;;;;;;0.50;0.50;;;;;;;3.66;100.00;98819.56;5072314;28;20429;-76
2022/12/29 06:25:19;;;;;;;0.50;0.50;;;;;;;3.57;100.00;98812.66;5056268;28;20040;-76
2022/12/29 06:27:44;;;;;;;0.50;0.50;;;;;;;3.65;100.00;98810.78;5055652;28;20498;-77
2022/12/29 06:30:11;;;;;;;0.40;0.40;;;;;;;3.80;100.00;98820.59;5039730;28;20389;-76
2022/12/29 06:32:37;;;;;;;0.40;0.40;;;;;;;3.95;100.00;98816.97;5055888;28;20025;-77
2022/12/29 06:35:04;;;;;;;0.50;0.50;;;;;;;3.88;100.00;98831.16;5070106;28;20120;-78
2022/12/29 06:37:30;;;;;;;0.40;0.40;;;;;;;3.77;100.00;98819.13;5055059;28;20033;-76
2022/12/29 06:39:55;;;;;;;0.50;0.50;;;;;;;3.69;100.00;98827.19;5056064;28;20383;-76
2022/12/29 06:42:21;;;;;;;0.50;0.50;;;;;;;3.72;100.00;98827.63;5039284;28;20036;-76
2022/12/29 06:44:47;;;;;;;0.50;0.50;;;;;;;3.77;100.00;98828.94;5038944;28;20414;-76
2022/12/29 06:47:12;;;;;;;0.50;0.50;;;;;;;3.84;100.00;98820.06;5073321;28;20075;-76
2022/12/29 06:49:38;;;;;;;0.40;0.40;;;;;;;3.71;100.00;98804.72;5071935;28;20029;-76
2022/12/29 06:52:04;;;;;;;0.47;0.47;;;;;;;3.83;100.00;98817.59;5071953;28;20176;-76
2022/12/29 06:54:33;;;;;;;1.88;0.65;;;;;;;3.82;100.00;98815.94;5071971;28;20036;-76
2022/12/29 06:56:59;;;;;;;0.40;0.40;;;;;;;3.89;100.00;98830.16;5055696;28;20051;-76
2022/12/29 06:59:25;;;;;;;0.50;0.50;;;;;;;3.82;100.00;98814.09;5039146;28;20032;-76
2022/12/29 07:01:51;;;;;;;0.40;0.40;;;;;;;3.82;100.00;98821.25;5055165;28;20074;-76
2022/12/29 07:04:17;;;;;;;0.50;0.50;;;;;;;3.67;100.00;98807.91;5038981;28;20032;-76
2022/12/29 07:06:43;;;;;;;0.40;0.40;;;;;;;3.65;100.00;98826.72;5055737;28;20036;-76
2022/12/29 07:09:09;;;;;;;0.50;0.50;;;;;;;3.67;100.00;98834.50;5022359;28;20467;-77
2022/12/29 07:11:35;;;;;;;0.40;0.40;;;;;;;3.87;100.00;98832.19;5055598;28;20402;-76
2022/12/29 07:14:00;;;;;;;0.70;0.70;;;;;;;4.13;100.00;98839.75;5071810;28;20031;-77
2022/12/29 07:16:26;;;;;;;0.50;0.50;;;;;;;4.23;100.00;98850.09;5039023;28;20537;-76
2022/12/29 07:18:52;;;;;;;1.90;0.70;;;;;;;4.23;100.00;98858.91;5073040;28;20035;-76
2022/12/29 07:21:18;;;;;;;0.50;0.50;;;;;;;4.24;100.00;98841.97;5055308;28;20025;-76
2022/12/29 07:23:44;;;;;;;0.68;0.68;;;;;;;4.35;100.00;98857.47;5038798;28;20036;-77
2022/12/29 07:26:12;;;;;;;0.60;0.60;;;;;;;4.43;100.00;98858.41;5038973;28;20367;-76
2022/12/29 07:28:38;;;;;;;0.50;0.50;;;;;;;4.43;100.00;98855.75;5038874;28;20032;-77
2022/12/29 07:31:05;;;;;;;0.40;0.40;;;;;;;4.31;100.00;98866.84;5072046;28;20055;-77
2022/12/29 07:33:31;;;;;;;0.50;0.50;;;;;;;4.07;100.00;98856.41;5071650;28;20542;-77
2022/12/29 07:35:58;;;;;;;0.40;0.40;;;;;;;3.97;100.00;98873.47;5055230;28;20032;-76
2022/12/29 07:38:23;;;;;;;0.50;0.50;;;;;;;3.84;100.00;98857.28;5038834;28;20028;-76
2022/12/29 07:40:49;;;;;;;0.40;0.40;;;;;;;4.04;100.00;98865.56;5073136;28;20039;-76
2022/12/29 07:43:15;;;;;;;0.40;0.40;;;;;;;4.11;100.00;98860.38;5055151;28;20047;-77
2022/12/29 07:45:40;;;;;;;0.43;0.43;;;;;;;4.22;100.00;98869.75;5055399;28;20052;-76
2022/12/29 07:48:09;;;;;;;0.60;0.60;;;;;;;4.09;100.00;98881.00;5037221;28;20039;-77
2022/12/29 07:50:35;;;;;;;0.50;0.50;;;;;;;4.10;100.00;98872.00;5072976;28;20070;-77
2022/12/29 07:53:01;;;;;;;0.40;0.40;;;;;;;4.21;100.00;98882.22;5054024;28;20119;-77
2022/12/29 07:55:27;;;;;;;0.93;0.50;;;;;;;4.29;100.00;98902.63;5034286;28;20123;-77
2022/12/29 07:57:54;;;;;;;0.50;0.50;;;;;;;4.30;100.00;98896.28;5044983;28;20516;-77
2022/12/29 08:00:20;;;;;;;0.40;0.40;;;;;;;4.37;100.00;98916.66;5051697;28;20032;-78
2022/12/29 08:02:46;;;;;;;0.50;0.50;;;;;;;4.33;100.00;98912.69;5023368;28;20037;-77
2022/12/29 08:05:11;;;;;;;0.50;0.50;;;;;;;4.36;100.00;98907.00;5075060;28;20081;-76
2022/12/29 08:07:37;;;;;;;0.40;0.40;;;;;;;4.39;100.00;98913.78;5042137;28;20033;-76
2022/12/29 08:10:03;;;;;;;0.45;0.45;;;;;;;4.26;100.00;98890.50;5058284;28;20032;-77
2022/12/29 08:12:29;;;;;;;0.40;0.40;;;;;;;4.32;100.00;98911.06;5075155;28;20471;-76
2022/12/29 08:14:55;;;;;;;1.75;0.65;;;;;;;4.35;100.00;98902.69;5074848;28;20078;-76
2022/12/29 08:17:20;;;;;;;0.50;0.50;;;;;;;4.36;100.00;98898.19;5074738;28;20467;-77
2022/12/29 08:19:49;;;;;;;0.50;0.50;;;;;;;4.33;100.00;98910.03;5042531;28;20128;-76
2022/12/29 08:22:15;;;;;;;1.13;0.57;;;;;;;4.26;100.00;98910.94;5058308;28;20123;-76
2022/12/29 08:24:40;;;;;;;0.50;0.50;;;;;;;4.21;100.00;98916.81;5057944;28;20032;-76
2022/12/29 08:27:06;;;;;;;0.45;0.45;;;;;;;4.21;100.00;98911.50;5041690;28;20036;-76
2022/12/29 08:29:32;;;;;;;0.50;0.50;;;;;;;4.22;100.00;98926.44;5025013;28;20479;-77
2022/12/29 08:31:57;;;;;;;0.93;0.60;;;;;;;4.22;100.00;98915.78;5074433;28;20033;-77
2022/12/29 08:34:23;;;;;;;0.60;0.60;;;;;;;4.36;100.00;98933.63;5058150;28;20039;-76
2022/12/29 08:36:49;;;;;;;0.40;0.40;;;;;;;4.40;100.00;98929.59;5074664;28;20169;-76
2022/12/29 08:39:15;;;;;;;0.50;0.50;;;;;;;4.30;100.00;98920.22;5041299;28;20463;-76
2022/12/29 08:41:41;;;;;;;0.50;0.50;;;;;;;4.31;100.00;98938.69;5024881;28;20566;-78
2022/12/29 08:44:07;;;;;;;0.60;0.50;;;;;;;4.30;100.00;98944.16;5054261;28;20116;-76
2022/12/29 08:46:32;;;;;;;0.40;0.40;;;;;;;4.28;100.00;98954.16;5037764;28;20054;-76
2022/12/29 08:48:58;;;;;;;0.50;0.50;;;;;;;4.17;100.00;98950.91;5021306;28;20463;-76
2022/12/29 08:51:24;;;;;;;0.40;0.40;;;;;;;4.08;100.00;98967.94;5073652;28;20509;-76
2022/12/29 08:53:50;;;;;;;0.47;0.47;;;;;;;4.07;100.00;98954.81;5057381;28;20033;-77
2022/12/29 08:56:17;;;;;;;0.50;0.50;;;;;;;4.04;100.00;98977.28;5037091;28;20037;-76
2022/12/29 08:58:42;;;;;;;0.50;0.50;;;;;;;4.06;100.00;98982.44;5057415;28;20040;-76
2022/12/29 09:01:09;;;;;;;0.40;0.40;;;;;;;3.91;100.00;98972.53;5057005;28;20482;-77
2022/12/29 09:03:34;;;;;;;0.50;0.50;;;;;;;3.86;100.00;98971.41;5057426;28;20029;-76
2022/12/29 09:06:00;;;;;;;0.50;0.50;;;;;;;3.77;100.00;98975.16;5074242;28;20040;-76
2022/12/29 09:08:26;;;;;;;0.50;0.50;;;;;;;3.75;100.00;98985.94;5034771;28;20064;-77
2022/12/29 09:10:52;;;;;;;0.50;0.50;;;;;;;3.68;100.00;98977.03;5040893;28;20036;-77
2022/12/29 09:13:18;;;;;;;0.50;0.50;;;;;;;3.70;100.00;98997.09;5073219;28;20026;-76
2022/12/29 09:15:44;;;;;;;0.40;0.40;;;;;;;3.69;100.00;98992.78;5055660;28;20032;-76
2022/12/29 09:18:10;;;;;;;0.50;0.50;;;;;;;3.63;100.00;98990.03;5073212;28;20047;-76
2022/12/29 09:20:36;;;;;;;0.50;0.50;;;;;;;3.65;100.00;98995.97;5087205;28;20031;-76
2022/12/29 09:23:03;;;;;;;0.47;0.47;;;;;;;3.68;100.00;98995.66;5066894;28;20043;-76
2022/12/29 09:25:29;;;;;;;0.50;0.50;;;;;;;3.68;100.00;99011.59;5055452;28;20028;-77
2022/12/29 09:27:54;;;;;;;0.40;0.40;;;;;;;3.73;100.00;99022.50;5054668;28;20155;-77
2022/12/29 09:30:22;;;;;;;0.50;0.50;;;;;;;3.90;100.00;99031.22;5037873;28;20124;-77
2022/12/29 09:32:48;;;;;;;0.50;0.50;;;;;;;4.12;100.00;99037.56;5073122;28;20037;-77
2022/12/29 09:35:15;;;;;;;0.50;0.50;;;;;;;4.25;100.00;99035.16;5040577;28;20028;-76
2022/12/29 09:37:41;;;;;;;0.40;0.40;;;;;;;4.38;100.00;99035.38;5039229;28;20036;-76
2022/12/29 09:40:09;;;;;;;0.50;0.50;;;;;;;4.58;100.00;99042.91;5037265;28;20040;-77
2022/12/29 09:42:41;;;;;;;0.50;0.50;;;;;;;4.75;100.00;99028.41;5049461;28;20062;-75
2022/12/29 09:45:15;;;;;;;0.50;0.50;;;;;;;5.18;100.00;99033.16;5072040;28;20045;-76
2022/12/29 09:47:42;;;;;;;0.60;0.60;;;;;;;5.58;100.00;99060.34;5036575;28;20037;-77
2022/12/29 09:50:17;;;;;;;0.55;0.45;;;;;;;5.44;100.00;99072.69;5053865;28;20466;-79
2022/12/29 09:52:55;;;;;;;0.75;0.52;;;;;;;5.29;100.00;99085.97;5054133;28;20057;-78
2022/12/29 09:55:34;;;;;;;0.50;0.50;;;;;;;5.25;100.00;99074.06;5068433;28;20079;-78
2022/12/29 09:58:05;;;;;;;0.40;0.40;;;;;;;5.44;100.00;99102.81;5056030;28;20032;-76
2022/12/29 10:00:39;;;;;;;0.60;0.60;;;;;;;5.69;100.00;99098.06;5040393;28;20028;-76
2022/12/29 10:03:24;;;;;;;0.50;0.50;;;;;;;6.05;100.00;99091.94;5039858;28;20444;-76
2022/12/29 10:06:23;;;;;;;0.60;0.60;;;;;;;6.41;100.00;99111.66;5072627;28;20127;-75
2022/12/29 10:09:17;;;;;;;0.40;0.40;;;;;;;5.92;100.00;99108.56;5039836;28;20028;-76
2022/12/29 10:12:01;;;;;;;0.50;0.50;;;;;;;5.45;100.00;99117.81;5041011;28;20470;-79
2022/12/29 10:14:53;;;;;;;0.40;0.40;;;;;;;5.10;100.00;99115.81;5056281;28;20413;-78
2022/12/29 10:17:40;;;;;;;0.55;0.55;;;;;;;4.91;100.00;99098.53;5072760;28;20455;-77
2022/12/29 10:20:14;;;;;;;0.50;0.50;;;;;;;4.89;100.00;99120.00;5039515;28;20131;-77
2022/12/29 10:23:36;;;;;;;0.50;0.50;;;;;;;4.95;100.00;99143.28;5073389;28;20483;-76
2022/12/29 10:26:02;;;;;;;0.50;0.50;;;;;;;5.05;100.00;99143.00;5014483;28;20033;-76
2022/12/29 10:28:45;;;;;;;0.50;0.50;;;;;;;5.04;100.00;99147.50;5051665;28;20068;-78
2022/12/29 10:31:21;;;;;;;0.50;0.50;;;;;;;4.94;100.00;99152.25;5056049;28;20093;-79
2022/12/29 10:33:59;;;;;;;0.50;0.50;;;;;;;4.79;100.00;99148.69;5056264;28;20036;-79
2022/12/29 10:36:47;;;;;;;0.50;0.50;;;;;;;4.86;100.00;99162.97;5056034;28;20040;-77
2022/12/29 10:39:23;;;;;;;0.52;0.52;;;;;;;5.15;100.00;99164.06;5041852;28;20032;-75
2022/12/29 10:41:58;;;;;;;0.50;0.50;;;;;;;6.57;100.00;99157.63;5069457;28;20028;-75
2022/12/29 10:44:28;;;;;;;0.50;0.50;;;;;;;6.22;100.00;99171.78;5036193;28;20127;-77
2022/12/29 10:47:00;;;;;;;0.43;0.43;;;;;;;5.71;100.00;99169.84;5058411;28;20057;-75
2022/12/29 10:49:28;;;;;;;0.50;0.50;;;;;;;5.33;100.00;99169.09;5039302;28;20040;-76
2022/12/29 10:51:57;;;;;;;0.50;0.50;;;;;;;5.29;100.00;99179.25;5050967;28;20487;-75
2022/12/29 10:54:41;;;;;;;0.50;0.50;;;;;;;5.47;100.00;99174.41;5060313;28;20028;-77
2022/12/29 10:57:27;;;;;;;0.50;0.50;;;;;;;5.35;100.00;99178.56;5055521;28;20028;-75
2022/12/29 10:59:53;;;;;;;0.50;0.50;;;;;;;5.27;100.00;99182.13;5052583;28;20107;-75
2022/12/29 11:02:37;;;;;;;0.50;0.50;;;;;;;5.51;100.00;99183.72;5037103;28;20533;-77
2022/12/29 11:05:25;;;;;;;0.50;0.50;;;;;;;5.52;100.00;99184.53;5071576;28;20037;-75
2022/12/29 11:07:53;;;;;;;0.50;0.50;;;;;;;5.57;100.00;99184.84;5049457;28;20033;-78
2022/12/29 11:10:24;;;;;;;0.70;0.70;;;;;;;6.21;100.00;99181.63;5053629;28;20448;-75
2022/12/29 11:12:59;;;;;;;0.60;0.60;;;;;;;8.28;100.00;99194.91;5052894;28;20471;-76
2022/12/29 11:15:25;;;;;;;0.60;0.60;;;;;;;9.05;100.00;99193.75;5067066;28;20037;-74
2022/12/29 11:17:53;;;;;;;0.60;0.60;;;;;;;9.59;100.00;99194.56;5039095;28;20032;-74
2022/12/29 11:20:33;;;;;;;0.50;0.50;;;;;;;9.73;100.00;99192.69;5061993;28;20470;-76
2022/12/29 11:23:00;;;;;;;0.50;0.50;;;;;;;8.16;100.00;99191.97;5033566;28;20036;-75
2022/12/29 11:25:26;;;;;;;0.43;0.43;;;;;;;7.51;100.00;99191.34;5037825;28;20553;-74
2022/12/29 11:27:56;;;;;;;0.50;0.50;;;;;;;7.29;100.00;99187.91;5038246;28;20041;-74
2022/12/29 11:30:28;;;;;;;0.50;0.50;;;;;;;7.22;100.00;99187.84;5067133;28;20370;-75
2022/12/29 11:32:54;;;;;;;0.45;0.45;;;;;;;7.04;100.00;99190.16;5038331;28;20040;-74
2022/12/29 11:35:38;;;;;;;0.85;0.85;;;;;;;6.64;100.00;99187.06;5054146;28;20037;-75
2022/12/29 11:38:04;;;;;;;0.40;0.40;;;;;;;6.42;100.00;99198.72;5072231;28;20471;-74
2022/12/29 11:40:31;;;;;;;0.60;0.60;;;;;;;6.19;100.00;99206.84;5042579;28;20127;-75
2022/12/29 11:43:04;;;;;;;0.50;0.50;;;;;;;6.11;100.00;99221.13;5038564;28;20046;-77
2022/12/29 11:45:33;;;;;;;0.60;0.60;;;;;;;6.22;100.00;99207.31;5053175;28;20071;-75
2022/12/29 11:48:05;;;;;;;0.50;0.50;;;;;;;6.45;100.00;99223.19;5051654;28;20055;-75
2022/12/29 11:50:32;;;;;;;0.55;0.55;;;;;;;6.97;100.00;99219.47;5067282;28;20062;-75
2022/12/29 11:53:16;;;;;;;0.60;0.60;;;;;;;7.00;100.00;99235.13;5057339;28;20436;-75
2022/12/29 11:55:51;;;;;;;0.60;0.60;;;;;;;7.37;100.00;99225.19;5043884;28;20531;-76
2022/12/29 11:58:17;;;;;;;0.40;0.40;;;;;;;6.94;100.00;99230.56;5041124;28;20051;-74
2022/12/29 12:00:44;;;;;;;0.50;0.50;;;;;;;6.28;100.00;99233.28;5040877;28;20040;-74
2022/12/29 12:03:16;;;;;;;0.50;0.50;;;;;;;6.08;100.00;99230.31;5055746;28;20036;-75
2022/12/29 12:05:54;;;;;;;0.60;0.60;;;;;;;6.39;100.00;99231.97;5073931;28;20037;-75
2022/12/29 12:08:45;;;;;;;0.50;0.50;;;;;;;6.83;100.00;99245.22;5075450;28;20044;-75
2022/12/29 12:11:16;;;;;;;0.50;0.50;;;;;;;6.21;100.00;99253.69;5051060;28;20082;-75
2022/12/29 12:14:06;;;;;;;0.52;0.52;;;;;;;6.55;100.00;99247.78;5057117;28;20032;-76
2022/12/29 12:16:40;;;;;;;0.50;0.50;;;;;;;6.93;100.00;99266.31;5057157;28;20044;-74
2022/12/29 12:19:20;;;;;;;0.50;0.50;;;;;;;6.93;100.00;99269.00;5055448;28;20033;-75
2022/12/29 12:21:49;;;;;;;0.50;0.50;;;;;;;6.87;100.00;99269.72;5078362;28;20040;-74